< < Back
Terminal Aerodrome Forecast


Current Version              Previous Versions:   1  2  3  4  5  6  7  8  9  

Terminal Aerodrome Forecast

409
FTUS44 KMOB 291129
TAFMOB
TAF
KMOB 291129Z 2912/3012 04005KT P6SM FEW250
     FM291800 15008KT P6SM SCT050 SCT250
      TEMPO 2921/2924 VRB15G25KT 4SM -TSRA BKN050CB
     FM300300 00000KT P6SM SCT250=

Latest METAR

436
SAUS80 KWBC 301100
MTRMOB
METAR KMOB 301056Z 00000KT 7SM FEW025 SCT060 BKN200 22/21 A3004 RMK AO2
SLP167 T02170211


USA.gov is the U.S. government's official web portal to all federal, state and local government web resources and services.